DAL4703 KSAN-KSFO
Flight info
| Callsign | DAL4703 |
|---|---|
| Flight time | N/A |
| Altitude | 38000 |
| Route | PADRZ2 IKAYE RIZIN SPLNT STOKD SERFR SERFR4 |
| Aircraft | A320/M-SDE3FGHIRWY/LB1 |
Departure
| Time | 2026-04-22 00:03 |
|---|---|
| Airport | San Diego International Airport (KSAN) |
Arrival
| Time | N/A |
|---|---|
| Airport | San Francisco International Airport (KSFO) |
| Time | Latitude | Longitude | Altitude | Speed | Heading |
|---|---|---|---|---|---|
| 2026-04-21 23:48 | 32.73307 | -117.19573 | 25 ft | 0 kts | 209° |
| 2026-04-21 23:50 | 32.73314 | -117.19568 | 28 ft | 2 kts | 209° |
| 2026-04-21 23:51 | 32.73328 | -117.19559 | 29 ft | 2 kts | 209° |
| 2026-04-21 23:51 | 32.73343 | -117.19550 | 26 ft | 2 kts | 209° |
| 2026-04-21 23:51 | 32.73357 | -117.19540 | 27 ft | 2 kts | 209° |
| 2026-04-21 23:51 | 32.73371 | -117.19530 | 27 ft | 2 kts | 194° |
| 2026-04-21 23:52 | 32.73387 | -117.19532 | 27 ft | 2 kts | 135° |
| 2026-04-21 23:52 | 32.73392 | -117.19537 | 27 ft | 0 kts | 114° |
| 2026-04-21 23:55 | 32.73391 | -117.19533 | 27 ft | 2 kts | 111° |
| 2026-04-21 23:55 | 32.73383 | -117.19504 | 27 ft | 5 kts | 106° |
| 2026-04-21 23:55 | 32.73371 | -117.19454 | 27 ft | 7 kts | 106° |
| 2026-04-21 23:55 | 32.73356 | -117.19392 | 30 ft | 9 kts | 106° |
| 2026-04-21 23:56 | 32.73336 | -117.19307 | 24 ft | 13 kts | 105° |
| 2026-04-21 23:56 | 32.73307 | -117.19190 | 25 ft | 16 kts | 106° |
| 2026-04-21 23:56 | 32.73273 | -117.19050 | 28 ft | 19 kts | 106° |
| 2026-04-21 23:56 | 32.73233 | -117.18883 | 27 ft | 23 kts | 106° |
| 2026-04-21 23:57 | 32.73185 | -117.18689 | 25 ft | 25 kts | 106° |
| 2026-04-21 23:57 | 32.73142 | -117.18508 | 26 ft | 25 kts | 106° |
| 2026-04-21 23:57 | 32.73095 | -117.18320 | 25 ft | 25 kts | 106° |
| 2026-04-21 23:57 | 32.73049 | -117.18123 | 19 ft | 21 kts | 108° |
| 2026-04-21 23:58 | 32.73006 | -117.17947 | 18 ft | 24 kts | 106° |
| 2026-04-21 23:58 | 32.72954 | -117.17753 | 17 ft | 17 kts | 109° |
| 2026-04-21 23:58 | 32.72955 | -117.17669 | 19 ft | 1 kts | 69° |
| 2026-04-22 00:01 | 32.72955 | -117.17668 | 18 ft | 0 kts | 69° |
| 2026-04-22 00:01 | 32.72961 | -117.17652 | 22 ft | 3 kts | 68° |
| 2026-04-22 00:02 | 32.72967 | -117.17636 | 20 ft | 4 kts | 63° |
| 2026-04-22 00:02 | 32.73016 | -117.17613 | 23 ft | 11 kts | 341° |
| 2026-04-22 00:02 | 32.73037 | -117.17654 | 20 ft | 0 kts | 287° |
| 2026-04-22 00:03 | 32.73099 | -117.17914 | 18 ft | 72 kts | 285° |
| 2026-04-22 00:03 | 32.73297 | -117.18727 | 18 ft | 131 kts | 286° |
| 2026-04-22 00:03 | 32.73594 | -117.19901 | 317 ft | 157 kts | 286° |
| 2026-04-22 00:03 | 32.73973 | -117.21105 | 1136 ft | 155 kts | 294° |
| 2026-04-22 00:04 | 32.74528 | -117.22204 | 1825 ft | 157 kts | 300° |
| 2026-04-22 00:04 | 32.75169 | -117.23348 | 2225 ft | 177 kts | 300° |
| 2026-04-22 00:04 | 32.75898 | -117.24643 | 2557 ft | 201 kts | 300° |
| 2026-04-22 00:04 | 32.76721 | -117.26110 | 2993 ft | 226 kts | 301° |
| 2026-04-22 00:05 | 32.77632 | -117.27744 | 3590 ft | 245 kts | 301° |
| 2026-04-22 00:05 | 32.78585 | -117.29454 | 4518 ft | 250 kts | 300° |
| 2026-04-22 00:05 | 32.79552 | -117.31187 | 5469 ft | 254 kts | 300° |
| 2026-04-22 00:05 | 32.80581 | -117.32930 | 6355 ft | 261 kts | 303° |
| 2026-04-22 00:06 | 32.81693 | -117.34666 | 7189 ft | 267 kts | 303° |
| 2026-04-22 00:06 | 32.82842 | -117.36416 | 8047 ft | 271 kts | 303° |
| 2026-04-22 00:06 | 32.84016 | -117.38196 | 8925 ft | 276 kts | 303° |
| 2026-04-22 00:06 | 32.85209 | -117.40009 | 9797 ft | 280 kts | 303° |
| 2026-04-22 00:07 | 32.86423 | -117.41871 | 10380 ft | 295 kts | 303° |
| 2026-04-22 00:07 | 32.87720 | -117.43883 | 10728 ft | 315 kts | 303° |
| 2026-04-22 00:07 | 32.89066 | -117.45977 | 11414 ft | 321 kts | 303° |
| 2026-04-22 00:07 | 32.90431 | -117.48099 | 12205 ft | 325 kts | 303° |
| 2026-04-22 00:08 | 32.91812 | -117.50244 | 13025 ft | 327 kts | 303° |
| 2026-04-22 00:08 | 32.93197 | -117.52399 | 13821 ft | 330 kts | 303° |
| 2026-04-22 00:08 | 32.94598 | -117.54578 | 14535 ft | 333 kts | 303° |
| 2026-04-22 00:08 | 32.96012 | -117.56777 | 15244 ft | 335 kts | 302° |
| 2026-04-22 00:09 | 32.97433 | -117.58989 | 15954 ft | 337 kts | 302° |
| 2026-04-22 00:09 | 32.98860 | -117.61210 | 16646 ft | 339 kts | 302° |
| 2026-04-22 00:09 | 33.00299 | -117.63453 | 17354 ft | 342 kts | 302° |
| 2026-04-22 00:09 | 33.01741 | -117.65712 | 18072 ft | 344 kts | 301° |
| 2026-04-22 00:10 | 33.03194 | -117.67989 | 18702 ft | 346 kts | 301° |